Freeman, Iowa
Current Conditions -  °F | °C
As of 12:53 AM on Monday 24 Nov 2014 (Local Time) from KMCW Reporting Station
Light Snow Light Snow  
Wind Chill: 15°   Ceiling: 1400
Heat Index: 30°   Visibility: 2mi
Dew Point: 26°   Wind: 29mph
Humidity: 85%   Direction: 310°NW
Pressure: 29.33"   Gusts: 38mph
Location:  43.1451°N, 93.1385°W
Report Text: KMCW 240653Z AUTO 31025G33KT 2SM -SN BR OVC014 M01/M03 A2933 RMK AO2 PK WND 31034/0608 SLP934 P0001 T10111033
Loading
Personal Weather Stations






























Interactive Weather Map New forecast layout! Learn more

10-Day Weather Forecast

Advertisements
Track Severe Weather on mobile